Aérodrome :
LOGIN :

S'inscrire | Disclaimer

   EN    FR    IT 

 










Légende :    VFR   VFR Marginal   IFR   IFR Intensif   IFR Très Intensif
Visi : 
Plafond : 
>= 8 km
>= 3000ft
5 à 8 km
1000 à 3000 ft
1500m à 5 km
500 à 1000 ft
800 à 1500m
200 à 500 ft
< 800m
< 200 ft
Symboles :   Orages  Brouillard  Fortes neiges  Fortes précipitations  Vent > 20 kt
SIGMETs :   Divers  Orages  Givrage  Turbulence  Onde Orograph.  Cendres Volcan.







- Altitude de l'aérodrome : 18 ft
- Code IATA : AJA
- Voir les cartes d'approche


LFKJ - Ajaccio

DERNIER METAR :
  • 301230Z 23009KT CAVOK 18/13 Q1026 NOSIG

METARs EXPIRÉS :
  • 301200Z 23009KT CAVOK 17/12 Q1026 NOSIG
  • 301130Z 23008KT CAVOK 17/12 Q1026 NOSIG
  • 301100Z 23008KT 9999 FEW030 17/12 Q1026 NOSIG
  • 301030Z 23009KT 9999 FEW030 17/12 Q1026 NOSIG
  • 301000Z 24005KT 9999 FEW030 16/11 Q1026 NOSIG
  • 300930Z 24004KT 9999 FEW030 15/10 Q1026 NOSIG

TAF TAF LFKJ
Valide du 30 à 09h jusqu'au 31 à 09h UTC


300800Z 3009/3109 22008KT 9999 FEW040
BECMG 3017/3019 05005KT
ATIS : +33 4 95 23 59 85
Pas de NOTAMs connus pour ce terrain.



MET'MAP, la Météo Aéronautique d'un coup d'oeil ! - Copyright ORBIFLY Décembre 2007 - Disclaimer

ORBIFLY MET'MAP TEAM :

Programmation & Développement : Alexandra Zaïnal
Conception & Développement : Baudouin d'Aumeries
Co-Programmation & Développement : Marc-Olivier Méhu
Soutien technique & logistique : Manuel Goepfert

Contact : metmap@orbifly.com




SOURCES & CREDITS :

   NOAA